sensor_id;sensor_type;location;lat;lon;timestamp;pressure;altitude;pressure_sealevel;temperature;humidity
76074;BME280;64776;42.636;24.358;2022-11-15T00:00:30;90691.38;;;0.86;86.15
76074;BME280;64776;42.636;24.358;2022-11-15T00:03:33;90699.13;;;0.93;86.12
76074;BME280;64776;42.636;24.358;2022-11-15T00:06:33;90699.75;;;0.77;86.26
76074;BME280;64776;42.636;24.358;2022-11-15T00:09:34;90694.44;;;0.81;86.18
76074;BME280;64776;42.636;24.358;2022-11-15T00:12:35;90686.81;;;0.90;86.08
76074;BME280;64776;42.636;24.358;2022-11-15T00:15:36;90681.09;;;0.95;86.26
76074;BME280;64776;42.636;24.358;2022-11-15T00:18:38;90679.72;;;1.10;86.26
76074;BME280;64776;42.636;24.358;2022-11-15T00:21:39;90680.41;;;1.14;85.59
76074;BME280;64776;42.636;24.358;2022-11-15T00:24:40;90672.59;;;1.11;85.86
76074;BME280;64776;42.636;24.358;2022-11-15T00:27:41;90672.19;;;1.12;85.96
76074;BME280;64776;42.636;24.358;2022-11-15T00:30:42;90668.31;;;1.20;86.53
76074;BME280;64776;42.636;24.358;2022-11-15T00:33:44;90668.31;;;1.20;85.84
76074;BME280;64776;42.636;24.358;2022-11-15T00:36:45;90660.50;;;1.17;86.31
76074;BME280;64776;42.636;24.358;2022-11-15T00:39:46;90656.31;;;1.19;86.11
76074;BME280;64776;42.636;24.358;2022-11-15T00:42:47;90653.84;;;1.32;85.99
76074;BME280;64776;42.636;24.358;2022-11-15T00:45:47;90643.72;;;1.30;86.06
76074;BME280;64776;42.636;24.358;2022-11-15T00:48:49;90650.69;;;1.40;85.83
76074;BME280;64776;42.636;24.358;2022-11-15T00:51:50;90641.66;;;1.41;86.10
76074;BME280;64776;42.636;24.358;2022-11-15T00:54:51;90640.06;;;1.47;85.79
76074;BME280;64776;42.636;24.358;2022-11-15T00:57:52;90633.31;;;1.46;86.07
76074;BME280;64776;42.636;24.358;2022-11-15T01:00:53;90631.72;;;1.52;85.78
76074;BME280;64776;42.636;24.358;2022-11-15T01:03:55;90631.00;;;1.48;86.23
76074;BME280;64776;42.636;24.358;2022-11-15T01:06:56;90626.84;;;1.51;85.99
76074;BME280;64776;42.636;24.358;2022-11-15T01:09:57;90634.00;;;1.50;86.04
76074;BME280;64776;42.636;24.358;2022-11-15T01:12:58;90630.22;;;1.51;85.93
76074;BME280;64776;42.636;24.358;2022-11-15T01:15:59;90630.22;;;1.51;86.64
76074;BME280;64776;42.636;24.358;2022-11-15T01:19:01;90627.50;;;1.55;86.62
76074;BME280;64776;42.636;24.358;2022-11-15T01:22:02;90616.63;;;1.56;86.63
76074;BME280;64776;42.636;24.358;2022-11-15T01:25:03;90618.94;;;1.51;86.51
76074;BME280;64776;42.636;24.358;2022-11-15T01:28:04;90614.38;;;1.55;87.46
76074;BME280;64776;42.636;24.358;2022-11-15T01:31:08;90618.16;;;1.54;86.95
76074;BME280;64776;42.636;24.358;2022-11-15T01:34:13;90625.38;;;1.50;87.03
76074;BME280;64776;42.636;24.358;2022-11-15T01:37:14;90623.28;;;1.61;87.57
76074;BME280;64776;42.636;24.358;2022-11-15T01:40:15;90618.00;;;1.61;87.14
76074;BME280;64776;42.636;24.358;2022-11-15T01:43:20;90616.47;;;1.63;87.31
76074;BME280;64776;42.636;24.358;2022-11-15T01:46:28;90622.81;;;1.66;87.29
76074;BME280;64776;42.636;24.358;2022-11-15T01:49:34;90621.06;;;1.59;87.33
76074;BME280;64776;42.636;24.358;2022-11-15T01:52:36;90621.72;;;1.63;87.50
76074;BME280;64776;42.636;24.358;2022-11-15T01:55:38;90624.84;;;1.58;87.58
76074;BME280;64776;42.636;24.358;2022-11-15T01:58:40;90621.06;;;1.59;87.57
76074;BME280;64776;42.636;24.358;2022-11-15T02:01:41;90613.56;;;1.58;87.72
76074;BME280;64776;42.636;24.358;2022-11-15T02:04:45;90619.16;;;1.60;87.69
76074;BME280;64776;42.636;24.358;2022-11-15T02:07:47;90624.03;;;1.61;87.15
76074;BME280;64776;42.636;24.358;2022-11-15T02:10:49;90619.44;;;1.65;87.02
76074;BME280;64776;42.636;24.358;2022-11-15T02:13:50;90617.88;;;1.68;87.40
76074;BME280;64776;42.636;24.358;2022-11-15T02:16:58;90612.38;;;1.62;87.20
76074;BME280;64776;42.636;24.358;2022-11-15T02:20:20;90619.91;;;1.60;87.29
76074;BME280;64776;42.636;24.358;2022-11-15T02:27:26;90614.44;;;1.51;87.24
76074;BME280;64776;42.636;24.358;2022-11-15T02:30:38;90613.75;;;1.47;87.49
76074;BME280;64776;42.636;24.358;2022-11-15T02:33:46;90606.28;;;1.46;87.75
76074;BME280;64776;42.636;24.358;2022-11-15T02:37:00;90611.59;;;1.42;87.48
76074;BME280;64776;42.636;24.358;2022-11-15T02:40:10;90604.19;;;1.37;87.46
76074;BME280;64776;42.636;24.358;2022-11-15T02:43:17;90598.84;;;1.21;87.62
76074;BME280;64776;42.636;24.358;2022-11-15T02:46:24;90596.03;;;1.32;88.00
76074;BME280;64776;42.636;24.358;2022-11-15T02:49:30;90591.47;;;1.36;87.33
76074;BME280;64776;42.636;24.358;2022-11-15T02:52:32;90592.50;;;1.38;87.16
76074;BME280;64776;42.636;24.358;2022-11-15T02:55:34;90597.91;;;1.31;86.64
76074;BME280;64776;42.636;24.358;2022-11-15T03:02:18;90599.91;;;1.24;86.86
76074;BME280;64776;42.636;24.358;2022-11-15T03:05:31;90599.19;;;1.23;87.55
76074;BME280;64776;42.636;24.358;2022-11-15T03:08:41;90594.94;;;1.29;87.37
76074;BME280;64776;42.636;24.358;2022-11-15T03:11:49;90596.91;;;1.25;87.07
76074;BME280;64776;42.636;24.358;2022-11-15T03:14:57;90593.13;;;1.26;87.17
76074;BME280;64776;42.636;24.358;2022-11-15T03:18:05;90590.91;;;1.25;87.42
76074;BME280;64776;42.636;24.358;2022-11-15T03:21:11;90588.94;;;1.29;86.73
76074;BME280;64776;42.636;24.358;2022-11-15T03:24:14;90583.09;;;1.21;87.27
76074;BME280;64776;42.636;24.358;2022-11-15T03:27:20;90592.44;;;1.22;86.51
76074;BME280;64776;42.636;24.358;2022-11-15T03:30:22;90584.63;;;1.19;86.67
76074;BME280;64776;42.636;24.358;2022-11-15T03:33:24;90590.66;;;1.16;86.90
76074;BME280;64776;42.636;24.358;2022-11-15T03:36:27;90585.16;;;1.10;87.00
76074;BME280;64776;42.636;24.358;2022-11-15T03:39:28;90576.91;;;1.08;87.69
76074;BME280;64776;42.636;24.358;2022-11-15T03:42:34;90576.91;;;1.08;87.04
76074;BME280;64776;42.636;24.358;2022-11-15T03:45:43;90569.09;;;1.05;86.99
76074;BME280;64776;42.636;24.358;2022-11-15T03:48:50;90564.38;;;0.96;87.05
76074;BME280;64776;42.636;24.358;2022-11-15T03:51:52;90559.56;;;0.91;86.75
76074;BME280;64776;42.636;24.358;2022-11-15T03:54:55;90560.72;;;0.90;86.89
76074;BME280;64776;42.636;24.358;2022-11-15T03:57:58;90556.94;;;0.91;86.80
76074;BME280;64776;42.636;24.358;2022-11-15T04:00:59;90562.78;;;0.79;86.29
76074;BME280;64776;42.636;24.358;2022-11-15T04:04:01;90555.81;;;0.69;86.22
76074;BME280;64776;42.636;24.358;2022-11-15T04:07:02;90552.44;;;0.68;87.19
76074;BME280;64776;42.636;24.358;2022-11-15T04:10:04;90551.56;;;0.55;86.57
76074;BME280;64776;42.636;24.358;2022-11-15T04:13:04;90550.69;;;0.39;86.57
76074;BME280;64776;42.636;24.358;2022-11-15T04:16:06;90548.59;;;0.53;86.53
76074;BME280;64776;42.636;24.358;2022-11-15T04:19:08;90548.41;;;0.41;87.29
76074;BME280;64776;42.636;24.358;2022-11-15T04:22:09;90545.09;;;0.60;86.68
76074;BME280;64776;42.636;24.358;2022-11-15T04:25:09;90548.53;;;0.57;87.44
76074;BME280;64776;42.636;24.358;2022-11-15T04:28:10;90542.00;;;0.65;86.99
76074;BME280;64776;42.636;24.358;2022-11-15T04:31:11;90533.69;;;0.70;86.39
76074;BME280;64776;42.636;24.358;2022-11-15T04:34:13;90539.56;;;0.54;86.65
76074;BME280;64776;42.636;24.358;2022-11-15T04:37:14;90540.25;;;0.58;87.56
76074;BME280;64776;42.636;24.358;2022-11-15T04:40:15;90536.34;;;0.66;87.00
76074;BME280;64776;42.636;24.358;2022-11-15T04:43:16;90539.38;;;0.42;87.75
76074;BME280;64776;42.636;24.358;2022-11-15T04:46:17;90541.91;;;0.49;87.48
76074;BME280;64776;42.636;24.358;2022-11-15T04:49:19;90538.28;;;0.39;87.96
76074;BME280;64776;42.636;24.358;2022-11-15T04:52:20;90538.56;;;0.22;87.95
76074;BME280;64776;42.636;24.358;2022-11-15T04:55:21;90531.81;;;0.21;88.15
76074;BME280;64776;42.636;24.358;2022-11-15T04:58:21;90526.94;;;0.46;87.77
76074;BME280;64776;42.636;24.358;2022-11-15T05:01:22;90528.38;;;0.50;87.42
76074;BME280;64776;42.636;24.358;2022-11-15T05:04:25;90526.91;;;0.49;87.35
76074;BME280;64776;42.636;24.358;2022-11-15T05:07:26;90527.69;;;0.46;87.21
76074;BME280;64776;42.636;24.358;2022-11-15T05:10:26;90526.22;;;0.45;87.24
76074;BME280;64776;42.636;24.358;2022-11-15T05:13:27;90530.03;;;0.41;87.61
76074;BME280;64776;42.636;24.358;2022-11-15T05:16:28;90526.38;;;0.35;87.80
76074;BME280;64776;42.636;24.358;2022-11-15T05:19:30;90525.50;;;0.41;87.60
76074;BME280;64776;42.636;24.358;2022-11-15T05:22:31;90533.09;;;0.36;87.42
76074;BME280;64776;42.636;24.358;2022-11-15T05:25:32;90527.97;;;0.29;87.48
76074;BME280;64776;42.636;24.358;2022-11-15T05:28:33;90529.34;;;0.37;86.88
76074;BME280;64776;42.636;24.358;2022-11-15T05:31:39;90531.63;;;0.35;87.44
76074;BME280;64776;42.636;24.358;2022-11-15T05:34:41;90529.28;;;0.40;87.16
76074;BME280;64776;42.636;24.358;2022-11-15T05:37:42;90537.25;;;0.33;87.11
76074;BME280;64776;42.636;24.358;2022-11-15T05:40:43;90541.38;;;0.34;87.11
76074;BME280;64776;42.636;24.358;2022-11-15T05:43:45;90534.69;;;0.30;87.46
76074;BME280;64776;42.636;24.358;2022-11-15T05:46:48;90534.69;;;0.30;87.75
76074;BME280;64776;42.636;24.358;2022-11-15T05:49:52;90541.44;;;0.31;87.82
76074;BME280;64776;42.636;24.358;2022-11-15T05:52:54;90538.81;;;0.31;87.71
76074;BME280;64776;42.636;24.358;2022-11-15T05:55:55;90542.22;;;0.28;87.48
76074;BME280;64776;42.636;24.358;2022-11-15T05:58:57;90540.69;;;0.30;87.53
76074;BME280;64776;42.636;24.358;2022-11-15T06:01:58;90531.28;;;0.33;87.82
76074;BME280;64776;42.636;24.358;2022-11-15T06:05:01;90543.31;;;0.30;87.61
76074;BME280;64776;42.636;24.358;2022-11-15T06:08:02;90536.97;;;0.28;87.27
76074;BME280;64776;42.636;24.358;2022-11-15T06:11:04;90542.84;;;0.35;87.70
76074;BME280;64776;42.636;24.358;2022-11-15T06:14:05;90536.31;;;0.47;87.26
76074;BME280;64776;42.636;24.358;2022-11-15T06:17:05;90537.28;;;0.56;86.32
76074;BME280;64776;42.636;24.358;2022-11-15T06:20:09;90536.41;;;0.63;86.36
76074;BME280;64776;42.636;24.358;2022-11-15T06:23:10;90532.38;;;0.58;86.45
76074;BME280;64776;42.636;24.358;2022-11-15T06:26:10;90541.56;;;0.47;86.79
76074;BME280;64776;42.636;24.358;2022-11-15T06:29:11;90532.53;;;0.48;86.51
76074;BME280;64776;42.636;24.358;2022-11-15T06:32:12;90533.09;;;0.36;87.31
76074;BME280;64776;42.636;24.358;2022-11-15T06:35:14;90537.94;;;0.37;87.03
76074;BME280;64776;42.636;24.358;2022-11-15T06:38:15;90538.94;;;0.47;87.39
76074;BME280;64776;42.636;24.358;2022-11-15T06:41:16;90546.34;;;0.52;87.37
76074;BME280;64776;42.636;24.358;2022-11-15T06:44:17;90530.94;;;0.54;87.36
76074;BME280;64776;42.636;24.358;2022-11-15T06:47:17;90533.44;;;0.61;87.25
76074;BME280;64776;42.636;24.358;2022-11-15T06:50:20;90542.78;;;0.62;86.72
76074;BME280;64776;42.636;24.358;2022-11-15T06:53:21;90537.22;;;0.60;87.72
76074;BME280;64776;42.636;24.358;2022-11-15T06:56:22;90535.25;;;0.87;86.79
76074;BME280;64776;42.636;24.358;2022-11-15T06:59:23;90533.31;;;0.91;87.33
76074;BME280;64776;42.636;24.358;2022-11-15T07:02:23;90527.47;;;1.03;87.35
76074;BME280;64776;42.636;24.358;2022-11-15T07:05:26;90525.38;;;1.14;86.48
76074;BME280;64776;42.636;24.358;2022-11-15T07:08:28;90525.06;;;1.12;86.41
76074;BME280;64776;42.636;24.358;2022-11-15T07:11:28;90521.91;;;1.21;86.91
76074;BME280;64776;42.636;24.358;2022-11-15T07:14:29;90525.06;;;1.12;86.25
76074;BME280;64776;42.636;24.358;2022-11-15T07:17:30;90515.09;;;1.23;86.73
76074;BME280;64776;42.636;24.358;2022-11-15T07:20:32;90516.09;;;1.29;86.73
76074;BME280;64776;42.636;24.358;2022-11-15T07:23:35;90521.91;;;1.21;87.09
76074;BME280;64776;42.636;24.358;2022-11-15T07:26:36;90517.78;;;1.39;87.41
76074;BME280;64776;42.636;24.358;2022-11-15T07:29:37;90519.91;;;1.64;87.37
76074;BME280;64776;42.636;24.358;2022-11-15T07:32:37;90511.59;;;1.85;87.05
76074;BME280;64776;42.636;24.358;2022-11-15T07:35:40;90514.16;;;2.05;86.15
76074;BME280;64776;42.636;24.358;2022-11-15T07:38:40;90514.91;;;2.05;86.02
76074;BME280;64776;42.636;24.358;2022-11-15T07:41:41;90507.88;;;2.18;86.31
76074;BME280;64776;42.636;24.358;2022-11-15T07:44:42;90500.88;;;2.28;86.12
76074;BME280;64776;42.636;24.358;2022-11-15T07:47:45;90500.78;;;2.31;85.98
76074;BME280;64776;42.636;24.358;2022-11-15T07:50:47;90507.03;;;2.37;87.23
76074;BME280;64776;42.636;24.358;2022-11-15T07:53:48;90503.16;;;2.42;87.03
76074;BME280;64776;42.636;24.358;2022-11-15T07:56:49;90497.22;;;2.54;86.68
76074;BME280;64776;42.636;24.358;2022-11-15T07:59:50;90492.38;;;2.69;85.82
76074;BME280;64776;42.636;24.358;2022-11-15T08:02:50;90490.59;;;2.78;86.27
76074;BME280;64776;42.636;24.358;2022-11-15T08:05:53;90490.13;;;2.83;86.80
76074;BME280;64776;42.636;24.358;2022-11-15T08:08:53;90485.28;;;3.10;86.80
76074;BME280;64776;42.636;24.358;2022-11-15T08:11:54;90487.13;;;3.26;87.40
76074;BME280;64776;42.636;24.358;2022-11-15T08:14:55;90492.28;;;3.58;88.56
76074;BME280;64776;42.636;24.358;2022-11-15T08:17:56;90486.50;;;3.76;87.59
76074;BME280;64776;42.636;24.358;2022-11-15T08:21:00;90485.88;;;3.97;88.35
76074;BME280;64776;42.636;24.358;2022-11-15T08:24:01;90488.84;;;4.24;88.30
76074;BME280;64776;42.636;24.358;2022-11-15T08:27:02;90486.81;;;4.53;88.95
76074;BME280;64776;42.636;24.358;2022-11-15T08:30:04;90485.06;;;4.72;89.03
76074;BME280;64776;42.636;24.358;2022-11-15T08:33:04;90479.41;;;4.95;89.66
76074;BME280;64776;42.636;24.358;2022-11-15T08:36:16;90464.44;;;5.14;88.16
76074;BME280;64776;42.636;24.358;2022-11-15T08:39:17;90465.31;;;5.32;88.48
76074;BME280;64776;42.636;24.358;2022-11-15T08:42:17;90457.09;;;5.52;88.54
76074;BME280;64776;42.636;24.358;2022-11-15T08:45:18;90460.81;;;5.63;87.64
76074;BME280;64776;42.636;24.358;2022-11-15T08:48:19;90453.72;;;5.82;87.24
76074;BME280;64776;42.636;24.358;2022-11-15T08:51:21;90450.00;;;6.01;87.11
76074;BME280;64776;42.636;24.358;2022-11-15T08:54:22;90448.91;;;6.20;86.83
76074;BME280;64776;42.636;24.358;2022-11-15T08:57:23;90458.09;;;6.37;85.08
76074;BME280;64776;42.636;24.358;2022-11-15T09:00:24;90448.28;;;6.56;85.33
76074;BME280;64776;42.636;24.358;2022-11-15T09:03:25;90448.00;;;6.72;84.14
76074;BME280;64776;42.636;24.358;2022-11-15T09:06:27;90449.97;;;6.90;83.88
76074;BME280;64776;42.636;24.358;2022-11-15T09:09:28;90447.19;;;7.02;83.33
76074;BME280;64776;42.636;24.358;2022-11-15T09:12:29;90443.19;;;7.07;82.71
76074;BME280;64776;42.636;24.358;2022-11-15T09:15:29;90440.53;;;7.07;82.00
76074;BME280;64776;42.636;24.358;2022-11-15T09:18:30;90436.28;;;7.18;81.42
76074;BME280;64776;42.636;24.358;2022-11-15T09:21:33;90431.41;;;7.17;81.51
76074;BME280;64776;42.636;24.358;2022-11-15T09:24:34;90424.78;;;7.12;82.05
76074;BME280;64776;42.636;24.358;2022-11-15T09:27:35;90428.28;;;7.27;81.25
76074;BME280;64776;42.636;24.358;2022-11-15T09:30:35;90417.22;;;7.47;80.37
76074;BME280;64776;42.636;24.358;2022-11-15T09:33:36;90413.50;;;7.63;79.22
76074;BME280;64776;42.636;24.358;2022-11-15T09:36:38;90408.00;;;7.75;78.88
76074;BME280;64776;42.636;24.358;2022-11-15T09:39:39;90401.94;;;7.84;78.77
76074;BME280;64776;42.636;24.358;2022-11-15T09:42:52;90393.16;;;8.10;77.18
76074;BME280;64776;42.636;24.358;2022-11-15T09:46:10;90390.75;;;8.21;77.01
76074;BME280;64776;42.636;24.358;2022-11-15T09:49:16;90396.66;;;8.49;75.30
76074;BME280;64776;42.636;24.358;2022-11-15T09:52:19;90390.00;;;8.54;76.45
76074;BME280;64776;42.636;24.358;2022-11-15T09:55:32;90388.53;;;8.76;75.11
76074;BME280;64776;42.636;24.358;2022-11-15T09:58:39;90387.31;;;9.01;73.92
76074;BME280;64776;42.636;24.358;2022-11-15T10:01:49;90378.16;;;9.02;74.08
76074;BME280;64776;42.636;24.358;2022-11-15T10:04:53;90369.97;;;9.29;72.53
76074;BME280;64776;42.636;24.358;2022-11-15T10:08:03;90365.47;;;9.64;72.20
76074;BME280;64776;42.636;24.358;2022-11-15T10:11:10;90361.63;;;9.80;70.85
76074;BME280;64776;42.636;24.358;2022-11-15T10:14:13;90359.50;;;10.13;70.71
76074;BME280;64776;42.636;24.358;2022-11-15T10:17:33;90357.75;;;10.45;69.83
76074;BME280;64776;42.636;24.358;2022-11-15T10:20:44;90348.56;;;10.66;68.37
76074;BME280;64776;42.636;24.358;2022-11-15T10:23:48;90349.91;;;10.76;68.27
76074;BME280;64776;42.636;24.358;2022-11-15T10:26:50;90351.44;;;10.62;69.61
76074;BME280;64776;42.636;24.358;2022-11-15T10:29:50;90351.97;;;10.87;70.03
76074;BME280;64776;42.636;24.358;2022-11-15T10:32:51;90343.94;;;11.07;68.14
76074;BME280;64776;42.636;24.358;2022-11-15T10:36:14;90330.59;;;11.27;68.03
76074;BME280;64776;42.636;24.358;2022-11-15T10:39:17;90326.34;;;11.40;67.13
76074;BME280;64776;42.636;24.358;2022-11-15T10:42:26;90320.47;;;11.36;67.45
76074;BME280;64776;42.636;24.358;2022-11-15T10:45:28;90322.75;;;11.43;66.09
76074;BME280;64776;42.636;24.358;2022-11-15T10:48:30;90317.22;;;11.53;67.09
76074;BME280;64776;42.636;24.358;2022-11-15T10:51:31;90310.63;;;11.74;65.58
76074;BME280;64776;42.636;24.358;2022-11-15T10:54:37;90299.75;;;12.14;65.26
76074;BME280;64776;42.636;24.358;2022-11-15T10:57:39;90298.94;;;12.39;63.38
76074;BME280;64776;42.636;24.358;2022-11-15T11:00:40;90289.25;;;12.47;62.62
76074;BME280;64776;42.636;24.358;2022-11-15T11:03:42;90291.13;;;12.83;62.44
76074;BME280;64776;42.636;24.358;2022-11-15T11:06:47;90288.88;;;13.35;60.00
76074;BME280;64776;42.636;24.358;2022-11-15T11:09:57;90274.03;;;13.56;58.67
76074;BME280;64776;42.636;24.358;2022-11-15T11:13:12;90272.09;;;13.57;57.92
76074;BME280;64776;42.636;24.358;2022-11-15T11:16:23;90269.19;;;13.99;57.11
76074;BME280;64776;42.636;24.358;2022-11-15T11:19:51;90258.16;;;14.25;55.49
76074;BME280;64776;42.636;24.358;2022-11-15T11:23:16;90247.88;;;14.51;53.04
76074;BME280;64776;42.636;24.358;2022-11-15T11:26:34;90238.38;;;14.44;53.64
76074;BME280;64776;42.636;24.358;2022-11-15T11:29:49;90231.78;;;14.45;51.59
76074;BME280;64776;42.636;24.358;2022-11-15T11:33:05;90226.44;;;14.40;50.41
76074;BME280;64776;42.636;24.358;2022-11-15T11:36:19;90224.50;;;14.24;49.48
76074;BME280;64776;42.636;24.358;2022-11-15T11:39:31;90224.25;;;14.16;52.11
76074;BME280;64776;42.636;24.358;2022-11-15T11:42:42;90218.16;;;14.10;50.53
76074;BME280;64776;42.636;24.358;2022-11-15T11:45:58;90215.00;;;14.34;51.02
76074;BME280;64776;42.636;24.358;2022-11-15T11:49:04;90211.34;;;14.31;51.45
76074;BME280;64776;42.636;24.358;2022-11-15T11:52:12;90209.84;;;14.36;50.10
76074;BME280;64776;42.636;24.358;2022-11-15T11:55:18;90215.47;;;14.32;52.35
76074;BME280;64776;42.636;24.358;2022-11-15T11:58:28;90214.06;;;13.87;57.19
76074;BME280;64776;42.636;24.358;2022-11-15T12:01:37;90212.13;;;13.49;57.18
76074;BME280;64776;42.636;24.358;2022-11-15T12:04:44;90218.16;;;13.05;58.20
76074;BME280;64776;42.636;24.358;2022-11-15T12:07:49;90214.22;;;13.00;58.62
76074;BME280;64776;42.636;24.358;2022-11-15T12:10:59;90212.31;;;13.06;58.33
76074;BME280;64776;42.636;24.358;2022-11-15T12:14:22;90201.78;;;12.81;58.30
76074;BME280;64776;42.636;24.358;2022-11-15T12:17:28;90206.69;;;12.88;58.65
76074;BME280;64776;42.636;24.358;2022-11-15T12:20:33;90204.22;;;12.84;58.85
76074;BME280;64776;42.636;24.358;2022-11-15T12:23:40;90202.97;;;12.80;58.21
76074;BME280;64776;42.636;24.358;2022-11-15T12:26:48;90202.03;;;12.88;57.54
76074;BME280;64776;42.636;24.358;2022-11-15T12:29:53;90197.19;;;13.03;57.70
76074;BME280;64776;42.636;24.358;2022-11-15T12:32:57;90195.47;;;13.00;57.49
76074;BME280;64776;42.636;24.358;2022-11-15T12:35:59;90186.28;;;13.13;57.00
76074;BME280;64776;42.636;24.358;2022-11-15T12:39:02;90188.44;;;12.92;57.24
76074;BME280;64776;42.636;24.358;2022-11-15T12:42:39;90189.09;;;12.70;57.14
76074;BME280;64776;42.636;24.358;2022-11-15T12:45:43;90191.72;;;12.59;57.05
76074;BME280;64776;42.636;24.358;2022-11-15T12:48:50;90184.88;;;12.47;57.03
76074;BME280;64776;42.636;24.358;2022-11-15T12:52:07;90189.63;;;12.15;58.89
76074;BME280;64776;42.636;24.358;2022-11-15T12:55:29;90189.50;;;11.93;59.16
76074;BME280;64776;42.636;24.358;2022-11-15T12:58:41;90182.41;;;11.85;59.94
76074;BME280;64776;42.636;24.358;2022-11-15T13:01:58;90183.22;;;12.02;59.30
76074;BME280;64776;42.636;24.358;2022-11-15T13:08:47;90191.97;;;12.02;59.33
76074;BME280;64776;42.636;24.358;2022-11-15T13:11:52;90202.00;;;12.07;59.33
76074;BME280;64776;42.636;24.358;2022-11-15T13:14:54;90192.59;;;11.81;60.20
76074;BME280;64776;42.636;24.358;2022-11-15T13:17:57;90195.72;;;11.79;60.62
76074;BME280;64776;42.636;24.358;2022-11-15T13:20:58;90196.22;;;11.78;60.25
76074;BME280;64776;42.636;24.358;2022-11-15T13:23:59;90192.88;;;11.88;60.38
76074;BME280;64776;42.636;24.358;2022-11-15T13:27:00;90194.63;;;11.97;60.03
76074;BME280;64776;42.636;24.358;2022-11-15T13:30:03;90183.03;;;12.11;59.49
76074;BME280;64776;42.636;24.358;2022-11-15T13:33:09;90186.72;;;12.19;60.16
76074;BME280;64776;42.636;24.358;2022-11-15T13:36:14;90182.97;;;12.00;60.67
76074;BME280;64776;42.636;24.358;2022-11-15T13:39:23;90184.44;;;12.01;60.96
76074;BME280;64776;42.636;24.358;2022-11-15T13:42:32;90182.75;;;12.03;60.63
76074;BME280;64776;42.636;24.358;2022-11-15T13:45:33;90172.66;;;12.35;59.85
76074;BME280;64776;42.636;24.358;2022-11-15T13:48:35;90166.75;;;12.20;59.88
76074;BME280;64776;42.636;24.358;2022-11-15T13:51:39;90174.31;;;11.74;60.61
76074;BME280;64776;42.636;24.358;2022-11-15T13:54:44;90174.16;;;11.52;61.41
76074;BME280;64776;42.636;24.358;2022-11-15T13:57:48;90168.22;;;11.36;61.90
76074;BME280;64776;42.636;24.358;2022-11-15T14:00:59;90171.44;;;11.15;62.01
76074;BME280;64776;42.636;24.358;2022-11-15T14:04:03;90160.91;;;11.00;62.11
76074;BME280;64776;42.636;24.358;2022-11-15T14:07:04;90177.22;;;10.82;62.66
76074;BME280;64776;42.636;24.358;2022-11-15T14:10:17;90169.31;;;10.42;64.08
76074;BME280;64776;42.636;24.358;2022-11-15T14:13:27;90167.84;;;10.21;63.92
76074;BME280;64776;42.636;24.358;2022-11-15T14:16:33;90168.97;;;9.74;65.31
76074;BME280;64776;42.636;24.358;2022-11-15T14:19:39;90163.69;;;9.59;65.24
76074;BME280;64776;42.636;24.358;2022-11-15T14:22:51;90161.06;;;9.45;66.29
76074;BME280;64776;42.636;24.358;2022-11-15T14:25:52;90162.13;;;9.18;67.43
76074;BME280;64776;42.636;24.358;2022-11-15T14:28:53;90168.75;;;8.93;66.93
76074;BME280;64776;42.636;24.358;2022-11-15T14:32:05;90164.63;;;8.63;69.24
76074;BME280;64776;42.636;24.358;2022-11-15T14:35:13;90163.44;;;8.50;68.98
76074;BME280;64776;42.636;24.358;2022-11-15T14:38:14;90162.09;;;8.31;69.39
76074;BME280;64776;42.636;24.358;2022-11-15T14:41:20;90157.72;;;8.28;69.35
76074;BME280;64776;42.636;24.358;2022-11-15T14:44:23;90165.59;;;7.98;70.56
76074;BME280;64776;42.636;24.358;2022-11-15T14:47:23;90156.84;;;7.83;70.58
76074;BME280;64776;42.636;24.358;2022-11-15T14:50:26;90158.72;;;7.68;70.78
76074;BME280;64776;42.636;24.358;2022-11-15T14:53:27;90160.31;;;7.51;71.67
76074;BME280;64776;42.636;24.358;2022-11-15T14:56:27;90153.28;;;7.39;71.59
76074;BME280;64776;42.636;24.358;2022-11-15T14:59:28;90152.25;;;7.36;71.63
76074;BME280;64776;42.636;24.358;2022-11-15T15:02:29;90154.94;;;7.04;72.82
76074;BME280;64776;42.636;24.358;2022-11-15T15:05:33;90159.84;;;6.87;74.02
76074;BME280;64776;42.636;24.358;2022-11-15T15:08:34;90159.13;;;6.87;73.86
76074;BME280;64776;42.636;24.358;2022-11-15T15:11:35;90164.00;;;6.79;74.07
76074;BME280;64776;42.636;24.358;2022-11-15T15:14:36;90158.59;;;6.65;74.73
76074;BME280;64776;42.636;24.358;2022-11-15T15:17:37;90158.91;;;6.57;75.44
76074;BME280;64776;42.636;24.358;2022-11-15T15:20:39;90158.16;;;6.66;74.60
76074;BME280;64776;42.636;24.358;2022-11-15T15:23:41;90166.84;;;6.67;74.85
76074;BME280;64776;42.636;24.358;2022-11-15T15:26:41;90162.75;;;6.56;74.13
76074;BME280;64776;42.636;24.358;2022-11-15T15:29:42;90166.44;;;6.41;73.91
76074;BME280;64776;42.636;24.358;2022-11-15T15:32:43;90174.88;;;6.30;74.41
76074;BME280;64776;42.636;24.358;2022-11-15T15:35:45;90182.81;;;6.03;74.99
76074;BME280;64776;42.636;24.358;2022-11-15T15:38:46;90172.75;;;5.71;76.45
76074;BME280;64776;42.636;24.358;2022-11-15T15:41:47;90175.41;;;5.53;76.84
76074;BME280;64776;42.636;24.358;2022-11-15T15:44:48;90176.13;;;5.53;76.57
76074;BME280;64776;42.636;24.358;2022-11-15T15:47:49;90176.28;;;5.59;76.49
76074;BME280;64776;42.636;24.358;2022-11-15T15:50:52;90171.59;;;5.63;76.11
76074;BME280;64776;42.636;24.358;2022-11-15T15:53:52;90173.03;;;5.55;75.99
76074;BME280;64776;42.636;24.358;2022-11-15T15:56:53;90174.19;;;5.36;76.57
76074;BME280;64776;42.636;24.358;2022-11-15T15:59:54;90170.66;;;5.39;76.25
76074;BME280;64776;42.636;24.358;2022-11-15T16:02:55;90183.88;;;5.30;76.51
76074;BME280;64776;42.636;24.358;2022-11-15T16:05:57;90172.94;;;5.01;77.28
76074;BME280;64776;42.636;24.358;2022-11-15T16:08:58;90177.72;;;4.93;77.56
76074;BME280;64776;42.636;24.358;2022-11-15T16:11:58;90170.25;;;4.91;77.83
76074;BME280;64776;42.636;24.358;2022-11-15T16:15:00;90172.72;;;4.86;77.12
76074;BME280;64776;42.636;24.358;2022-11-15T16:18:03;90167.84;;;4.75;77.52
76074;BME280;64776;42.636;24.358;2022-11-15T16:21:08;90167.91;;;4.63;77.78